Delta Virtual Airport Information Service

Male Velana International Airport

ICAO: VRMM Country: Maldives
Latitude: 4.19183 Longitude: 73.5291
Latest Arrival : QTR5359511 (OTHH-VRMM) Latest Departure : QTR531862 (VRMM-OTHH)


WX CaptureLIVE
Data provided by noaa.gov | Fetched at 03:52:02

METAR : VRMM 030900Z 25006KT 9999 SCT018 31/26 Q1010 NOSIG

TAF : VRMM 022300Z 0300/0406 20006KT 9999 FEW018TCU TEMPO 0300/0306 FEW018CB


Runway Data for VRMM
Data provided by openaviationdata.com

Runway ID Mag Var Hdg Length Elevation Surface ILS Freq ILS Id ILS Slope
18 -3 182° 10547 ft 0 ft Bituminous -- -- --
36 -3 10547 ft 0 ft Bituminous 108.7 IML 3

Male Velana International Airport, Maldives
Use only for reference purposes



Not for navigational purposes.